M/V Patriot — WDG2884 — position and weather

sailwx.info

Track history (hours):
 
Tides and Currents Weather Stations Pressure Air Temp Water Temp Dewpoint Dewpoint Depression Visibility Wind Speed Wind Dir Waves Ship Positions

M/V Patriot

Owner: Enterprise Marine Services, LLC, San Antonio, TX. More information available from US FCC via Universal Licensing System and Coast Guard Vessel Documentation Center.

Last reported at 2017-Nov-10 13:54 UTC. Time now 2017-Nov-21 02:42 UTC.
Position N 32°44' W 091°04'.
Warning: this ship's position is 10 days out of date.

Length 33 m; draft 2.9 m.

Type: Tug. MMSI: 367520270.

Date/timePositionNaut miles runAvg speedWind from/ knotsBaromVisibWave heightAir tempDewpointWater temp
2017-Nov-10 13:54N 32°44' W 091°04'4 3.8
2017-Nov-10 12:48N 32°40' W 091°07'2 5.4
2017-Nov-10 12:30N 32°40' W 091°08'2 3.1
2017-Nov-10 12:00N 32°38' W 091°09'0 0.0
2017-Nov-10 11:30N 32°38' W 091°09'0 0.0
2017-Nov-10 11:00N 32°38' W 091°09'0 0.1
2017-Nov-10 10:30N 32°38' W 091°09'1 2.9
2017-Nov-10 10:00N 32°37' W 091°09'2 4.1
2017-Nov-10 09:30N 32°35' W 091°08'2 4.5
2017-Nov-10 09:00N 32°33' W 091°06'2 4.1
2017-Nov-10 08:30N 32°31' W 091°06'2 4.5
2017-Nov-10 08:00N 32°29' W 091°07'2 4.8
2017-Nov-10 07:30N 32°27' W 091°05'2 4.8
2017-Nov-10 07:00N 32°26' W 091°03'3 5.0
2017-Nov-10 06:30N 32°25' W 091°00'2 4.6
2017-Nov-10 06:00N 32°23' W 090°60'2 4.1
2017-Nov-10 05:30N 32°21' W 090°59'3 5.0
2017-Nov-10 05:00N 32°21' W 090°56'2 4.2
2017-Nov-10 04:30N 32°19' W 090°54'2 3.6
2017-Nov-10 04:00N 32°18' W 090°55'0 0.0
2017-Nov-10 03:30N 32°18' W 090°55'0 0.0
2017-Nov-10 03:00N 32°18' W 090°55'0 0.0
2017-Nov-10 02:30N 32°18' W 090°55'1 2.3
2017-Nov-10 02:00N 32°17' W 090°56'2 4.7
2017-Nov-10 01:30N 32°16' W 090°58'2 4.2
2017-Nov-10 01:00N 32°14' W 090°59'1 2.4
2017-Nov-10 00:30N 32°12' W 090°59'0 0.9
2017-Nov-10 00:00N 32°12' W 090°59'0 0.0
2017-Nov-09 23:30N 32°12' W 090°59'0 0.0
2017-Nov-09 23:00N 32°12' W 090°59'0 0.0
2017-Nov-09 22:30N 32°12' W 090°59'0 0.0
2017-Nov-09 22:00N 32°12' W 090°59'0 0.0
2017-Nov-09 21:30N 32°12' W 090°59'0 0.0
2017-Nov-09 21:00N 32°12' W 090°59'0 0.0
2017-Nov-09 20:30N 32°12' W 090°59'0 0.0
2017-Nov-09 20:00N 32°12' W 090°59'0 0.0
2017-Nov-09 19:30N 32°12' W 090°59'0 0.0
2017-Nov-09 19:00N 32°12' W 090°59'0 0.0
2017-Nov-09 18:30N 32°12' W 090°59'0 0.0
2017-Nov-09 18:00N 32°12' W 090°59'0 0.8
2017-Nov-09 17:30N 32°12' W 090°59'2 3.6
2017-Nov-09 17:00N 32°10' W 091°00'2 3.7
2017-Nov-09 16:30N 32°08' W 091°00'2 3.7
2017-Nov-09 15:58N 32°07' W 091°02'3 2.1
2017-Nov-09 14:35N 32°08' W 091°06'0 4.3
2017-Nov-09 14:30N 32°08' W 091°06'5 4.0
2017-Nov-09 13:13N 32°03' W 091°03'1 5.5
2017-Nov-09 13:00N 32°02' W 091°04'  
2017-Nov-05 00:53N 29°36' W 090°58'3 6.8
2017-Nov-05 00:30N 29°34' W 090°56'4 7.6
2017-Nov-04 23:55N 29°32' W 090°51'3 7.1
2017-Nov-04 23:30N 29°32' W 090°48'3 6.2
2017-Nov-04 23:00N 29°34' W 090°45'2 3.7
2017-Nov-04 22:30N 29°34' W 090°43'0 0.2
2017-Nov-04 22:00N 29°34' W 090°43'1 2.4
2017-Nov-04 21:30N 29°35' W 090°43'0 0.0
2017-Nov-04 21:00N 29°35' W 090°43'1 1.8
2017-Nov-04 20:30N 29°34' W 090°43'0 0.6
2017-Nov-04 20:00N 29°34' W 090°43'0 0.1
2017-Nov-04 19:30N 29°34' W 090°43'0 0.0
2017-Nov-04 19:00N 29°34' W 090°43'0 0.2
2017-Nov-04 18:30N 29°34' W 090°43'0 0.1
2017-Nov-04 18:00N 29°34' W 090°43'0 0.1
2017-Nov-04 17:30N 29°34' W 090°43'0 0.3
2017-Nov-04 17:00N 29°34' W 090°43'1 2.8
2017-Nov-04 16:30N 29°35' W 090°43'2 3.6
2017-Nov-04 16:00N 29°37' W 090°41'1 1.7
2017-Nov-04 15:30N 29°36' W 090°40'2 4.1
2017-Nov-04 15:00N 29°35' W 090°38'3 5.4
2017-Nov-04 14:30N 29°35' W 090°35'1 2.3
2017-Nov-04 14:00N 29°34' W 090°34'0 0.0
2017-Nov-04 13:30N 29°34' W 090°34'0 0.0
2017-Nov-04 13:00N 29°34' W 090°34'0 0.0
2017-Nov-04 12:30N 29°34' W 090°34'0 0.0
2017-Nov-04 12:00N 29°34' W 090°34'0 0.0
2017-Nov-04 11:30N 29°34' W 090°34'0 0.0
2017-Nov-04 11:00N 29°34' W 090°34'0 0.0
2017-Nov-04 10:30N 29°34' W 090°34'0 0.0
2017-Nov-04 10:00N 29°34' W 090°34'0 0.0
2017-Nov-04 09:30N 29°34' W 090°34'0 0.0
2017-Nov-04 09:00N 29°34' W 090°34'0 0.0
2017-Nov-04 08:30N 29°34' W 090°34'0 0.0
2017-Nov-04 08:00N 29°34' W 090°34'0 0.0
2017-Nov-04 07:30N 29°34' W 090°34'0 0.0
2017-Nov-04 07:00N 29°34' W 090°34'0 0.0
2017-Nov-04 06:30N 29°34' W 090°34'1 2.8
2017-Nov-04 06:00N 29°34' W 090°33'3 6.1
2017-Nov-04 05:30N 29°34' W 090°29'3 5.7
2017-Nov-04 05:00N 29°33' W 090°26'  
Track history (hours):
 
Tides and Currents Weather Stations Pressure Air Temp Water Temp Dewpoint Dewpoint Depression Visibility Wind Speed Wind Dir Waves Ship Positions

M/V Patriot

Owner: Enterprise Marine Services, LLC, San Antonio, TX. More information available from US FCC via Universal Licensing System and Coast Guard Vessel Documentation Center.

Last reported at 2017-Nov-10 13:54 UTC. Time now 2017-Nov-21 02:42 UTC.
Position N 32°44' W 091°04'.
Warning: this ship's position is 10 days out of date.

Length 33 m; draft 2.9 m.

Type: Tug. MMSI: 367520270.

Date/timePositionNaut miles runAvg speedWind from/ knotsBaromVisibWave heightAir tempDewpointWater temp
2017-Nov-10 13:54N 32°44' W 091°04'4 3.8
2017-Nov-10 12:48N 32°40' W 091°07'2 5.4
2017-Nov-10 12:30N 32°40' W 091°08'2 3.1
2017-Nov-10 12:00N 32°38' W 091°09'0 0.0
2017-Nov-10 11:30N 32°38' W 091°09'0 0.0
2017-Nov-10 11:00N 32°38' W 091°09'0 0.1
2017-Nov-10 10:30N 32°38' W 091°09'1 2.9
2017-Nov-10 10:00N 32°37' W 091°09'2 4.1
2017-Nov-10 09:30N 32°35' W 091°08'2 4.5
2017-Nov-10 09:00N 32°33' W 091°06'2 4.1
2017-Nov-10 08:30N 32°31' W 091°06'2 4.5
2017-Nov-10 08:00N 32°29' W 091°07'2 4.8
2017-Nov-10 07:30N 32°27' W 091°05'2 4.8
2017-Nov-10 07:00N 32°26' W 091°03'3 5.0
2017-Nov-10 06:30N 32°25' W 091°00'2 4.6
2017-Nov-10 06:00N 32°23' W 090°60'2 4.1
2017-Nov-10 05:30N 32°21' W 090°59'3 5.0
2017-Nov-10 05:00N 32°21' W 090°56'2 4.2
2017-Nov-10 04:30N 32°19' W 090°54'2 3.6
2017-Nov-10 04:00N 32°18' W 090°55'0 0.0
2017-Nov-10 03:30N 32°18' W 090°55'0 0.0
2017-Nov-10 03:00N 32°18' W 090°55'0 0.0
2017-Nov-10 02:30N 32°18' W 090°55'1 2.3
2017-Nov-10 02:00N 32°17' W 090°56'2 4.7
2017-Nov-10 01:30N 32°16' W 090°58'2 4.2
2017-Nov-10 01:00N 32°14' W 090°59'1 2.4
2017-Nov-10 00:30N 32°12' W 090°59'0 0.9
2017-Nov-10 00:00N 32°12' W 090°59'0 0.0
2017-Nov-09 23:30N 32°12' W 090°59'0 0.0
2017-Nov-09 23:00N 32°12' W 090°59'0 0.0
2017-Nov-09 22:30N 32°12' W 090°59'0 0.0
2017-Nov-09 22:00N 32°12' W 090°59'0 0.0
2017-Nov-09 21:30N 32°12' W 090°59'0 0.0
2017-Nov-09 21:00N 32°12' W 090°59'0 0.0
2017-Nov-09 20:30N 32°12' W 090°59'0 0.0
2017-Nov-09 20:00N 32°12' W 090°59'0 0.0
2017-Nov-09 19:30N 32°12' W 090°59'0 0.0
2017-Nov-09 19:00N 32°12' W 090°59'0 0.0
2017-Nov-09 18:30N 32°12' W 090°59'0 0.0
2017-Nov-09 18:00N 32°12' W 090°59'0 0.8
2017-Nov-09 17:30N 32°12' W 090°59'2 3.6
2017-Nov-09 17:00N 32°10' W 091°00'2 3.7
2017-Nov-09 16:30N 32°08' W 091°00'2 3.7
2017-Nov-09 15:58N 32°07' W 091°02'3 2.1
2017-Nov-09 14:35N 32°08' W 091°06'0 4.3
2017-Nov-09 14:30N 32°08' W 091°06'5 4.0
2017-Nov-09 13:13N 32°03' W 091°03'1 5.5
2017-Nov-09 13:00N 32°02' W 091°04'  
2017-Nov-05 00:53N 29°36' W 090°58'3 6.8
2017-Nov-05 00:30N 29°34' W 090°56'4 7.6
2017-Nov-04 23:55N 29°32' W 090°51'3 7.1
2017-Nov-04 23:30N 29°32' W 090°48'3 6.2
2017-Nov-04 23:00N 29°34' W 090°45'2 3.7
2017-Nov-04 22:30N 29°34' W 090°43'0 0.2
2017-Nov-04 22:00N 29°34' W 090°43'1 2.4
2017-Nov-04 21:30N 29°35' W 090°43'0 0.0
2017-Nov-04 21:00N 29°35' W 090°43'1 1.8
2017-Nov-04 20:30N 29°34' W 090°43'0 0.6
2017-Nov-04 20:00N 29°34' W 090°43'0 0.1
2017-Nov-04 19:30N 29°34' W 090°43'0 0.0
2017-Nov-04 19:00N 29°34' W 090°43'0 0.2
2017-Nov-04 18:30N 29°34' W 090°43'0 0.1
2017-Nov-04 18:00N 29°34' W 090°43'0 0.1
2017-Nov-04 17:30N 29°34' W 090°43'0 0.3
2017-Nov-04 17:00N 29°34' W 090°43'1 2.8
2017-Nov-04 16:30N 29°35' W 090°43'2 3.6
2017-Nov-04 16:00N 29°37' W 090°41'1 1.7
2017-Nov-04 15:30N 29°36' W 090°40'2 4.1
2017-Nov-04 15:00N 29°35' W 090°38'3 5.4
2017-Nov-04 14:30N 29°35' W 090°35'1 2.3
2017-Nov-04 14:00N 29°34' W 090°34'0 0.0
2017-Nov-04 13:30N 29°34' W 090°34'0 0.0
2017-Nov-04 13:00N 29°34' W 090°34'0 0.0
2017-Nov-04 12:30N 29°34' W 090°34'0 0.0
2017-Nov-04 12:00N 29°34' W 090°34'0 0.0
2017-Nov-04 11:30N 29°34' W 090°34'0 0.0
2017-Nov-04 11:00N 29°34' W 090°34'0 0.0
2017-Nov-04 10:30N 29°34' W 090°34'0 0.0
2017-Nov-04 10:00N 29°34' W 090°34'0 0.0
2017-Nov-04 09:30N 29°34' W 090°34'0 0.0
2017-Nov-04 09:00N 29°34' W 090°34'0 0.0
2017-Nov-04 08:30N 29°34' W 090°34'0 0.0
2017-Nov-04 08:00N 29°34' W 090°34'0 0.0
2017-Nov-04 07:30N 29°34' W 090°34'0 0.0
2017-Nov-04 07:00N 29°34' W 090°34'0 0.0
2017-Nov-04 06:30N 29°34' W 090°34'1 2.8
2017-Nov-04 06:00N 29°34' W 090°33'3 6.1
2017-Nov-04 05:30N 29°34' W 090°29'3 5.7
2017-Nov-04 05:00N 29°33' W 090°26'  

Dump ship's entire track history